KPQI

Northern Maine Regional Arpt at Presque Is Airport

Presque Isle, Maine, USA
METAR KPQI 182256Z AUTO 05004KT 10SM CLR 22/13 A2991 RMK AO2 SLP165 T02170133
Observed Flight Rules
Aug-18 @ 22:56 UTC (50 minutes ago) Visual Flight Rules
Wind Visibility Clouds
50° at 4 knots 10 miles
  • Clear skies
Temperatures Readings
Current 22°C / 72°F
Dewpoint 13°C / 55°F
Humidity 57%
Altimeter 29.91" Hg
Pressure 1016.5 hPa
Elevation 146
METAR KPQI 182256Z AUTO 05004KT 10SM CLR 22/13 A2991 RMK AO2 SLP165 T02170133
Observed Flight Rules
Aug-18 @ 22:56 UTC
(50 minutes ago)
VFR
Wind Visibility
50° at 4 knots 10 miles
Clouds
  • Clear skies
Temperature Dewpoint
22°C / 72°F 13°C / 55°F
Humidity Altimeter Pressure
57% 29.91" Hg 1016.5 hPa